sensor_id;sensor_type;location;lat;lon;timestamp;temperature;humidity
24802;DHT22;12898;50.520;12.152;2023-04-25T00:01:17;6.50;99.90
24802;DHT22;12898;50.520;12.152;2023-04-25T00:03:44;6.50;99.90
24802;DHT22;12898;50.520;12.152;2023-04-25T00:06:10;6.50;99.90
24802;DHT22;12898;50.520;12.152;2023-04-25T00:08:37;6.60;99.90
24802;DHT22;12898;50.520;12.152;2023-04-25T00:11:03;6.60;99.90
24802;DHT22;12898;50.520;12.152;2023-04-25T00:13:28;6.60;99.90
24802;DHT22;12898;50.520;12.152;2023-04-25T00:15:55;6.60;99.90
24802;DHT22;12898;50.520;12.152;2023-04-25T00:18:21;6.60;99.90
24802;DHT22;12898;50.520;12.152;2023-04-25T00:20:48;6.70;99.90
24802;DHT22;12898;50.520;12.152;2023-04-25T00:23:17;6.60;99.90
24802;DHT22;12898;50.520;12.152;2023-04-25T00:25:44;6.60;99.90
24802;DHT22;12898;50.520;12.152;2023-04-25T00:28:11;6.60;99.90
24802;DHT22;12898;50.520;12.152;2023-04-25T00:30:38;6.60;99.90
24802;DHT22;12898;50.520;12.152;2023-04-25T00:33:04;6.60;99.90
24802;DHT22;12898;50.520;12.152;2023-04-25T00:35:30;6.70;99.90
24802;DHT22;12898;50.520;12.152;2023-04-25T00:37:56;6.70;99.90
24802;DHT22;12898;50.520;12.152;2023-04-25T00:40:22;6.70;99.90
24802;DHT22;12898;50.520;12.152;2023-04-25T00:42:47;6.70;99.90
24802;DHT22;12898;50.520;12.152;2023-04-25T00:45:14;6.70;99.90
24802;DHT22;12898;50.520;12.152;2023-04-25T00:47:41;6.70;99.90
24802;DHT22;12898;50.520;12.152;2023-04-25T00:50:08;6.70;99.90
24802;DHT22;12898;50.520;12.152;2023-04-25T00:52:34;6.70;99.90
24802;DHT22;12898;50.520;12.152;2023-04-25T00:55:00;6.80;99.90
24802;DHT22;12898;50.520;12.152;2023-04-25T00:57:26;6.80;99.90
24802;DHT22;12898;50.520;12.152;2023-04-25T00:59:52;6.80;99.90
24802;DHT22;12898;50.520;12.152;2023-04-25T01:02:19;6.80;99.90
24802;DHT22;12898;50.520;12.152;2023-04-25T01:04:46;6.90;99.90
24802;DHT22;12898;50.520;12.152;2023-04-25T01:07:13;6.90;99.90
24802;DHT22;12898;50.520;12.152;2023-04-25T01:09:39;6.90;99.90
24802;DHT22;12898;50.520;12.152;2023-04-25T01:12:05;6.90;99.90
24802;DHT22;12898;50.520;12.152;2023-04-25T01:14:31;6.90;99.90
24802;DHT22;12898;50.520;12.152;2023-04-25T01:16:57;6.90;99.90
24802;DHT22;12898;50.520;12.152;2023-04-25T01:19:23;6.90;99.90
24802;DHT22;12898;50.520;12.152;2023-04-25T01:21:50;6.90;99.90
24802;DHT22;12898;50.520;12.152;2023-04-25T01:24:16;7.00;99.90
24802;DHT22;12898;50.520;12.152;2023-04-25T01:26:42;7.00;99.90
24802;DHT22;12898;50.520;12.152;2023-04-25T01:29:16;7.00;99.90
24802;DHT22;12898;50.520;12.152;2023-04-25T01:31:43;7.00;99.90
24802;DHT22;12898;50.520;12.152;2023-04-25T01:34:10;7.00;99.90
24802;DHT22;12898;50.520;12.152;2023-04-25T01:36:36;7.00;99.90
24802;DHT22;12898;50.520;12.152;2023-04-25T01:39:03;7.00;99.90
24802;DHT22;12898;50.520;12.152;2023-04-25T01:41:29;7.00;99.90
24802;DHT22;12898;50.520;12.152;2023-04-25T01:43:55;7.00;99.90
24802;DHT22;12898;50.520;12.152;2023-04-25T01:46:21;7.00;99.90
24802;DHT22;12898;50.520;12.152;2023-04-25T01:48:47;6.90;99.90
24802;DHT22;12898;50.520;12.152;2023-04-25T01:51:13;7.00;99.90
24802;DHT22;12898;50.520;12.152;2023-04-25T01:53:39;6.90;99.90
24802;DHT22;12898;50.520;12.152;2023-04-25T01:56:05;6.90;99.90
24802;DHT22;12898;50.520;12.152;2023-04-25T01:58:31;6.90;99.90
24802;DHT22;12898;50.520;12.152;2023-04-25T02:00:57;6.90;99.90
24802;DHT22;12898;50.520;12.152;2023-04-25T02:03:23;6.90;99.90
24802;DHT22;12898;50.520;12.152;2023-04-25T02:05:48;6.90;99.90
24802;DHT22;12898;50.520;12.152;2023-04-25T02:08:16;6.90;99.90
24802;DHT22;12898;50.520;12.152;2023-04-25T02:10:43;6.90;99.90
24802;DHT22;12898;50.520;12.152;2023-04-25T02:13:09;6.90;99.90
24802;DHT22;12898;50.520;12.152;2023-04-25T02:15:35;6.90;99.90
24802;DHT22;12898;50.520;12.152;2023-04-25T02:18:00;6.90;99.90
24802;DHT22;12898;50.520;12.152;2023-04-25T02:20:28;6.80;99.90
24802;DHT22;12898;50.520;12.152;2023-04-25T02:22:55;6.80;99.90
24802;DHT22;12898;50.520;12.152;2023-04-25T02:25:21;6.80;99.90
24802;DHT22;12898;50.520;12.152;2023-04-25T02:27:47;6.80;99.90
24802;DHT22;12898;50.520;12.152;2023-04-25T02:30:14;6.80;99.90
24802;DHT22;12898;50.520;12.152;2023-04-25T02:32:40;6.70;99.90
24802;DHT22;12898;50.520;12.152;2023-04-25T02:35:06;6.70;99.90
24802;DHT22;12898;50.520;12.152;2023-04-25T02:37:33;6.70;99.90
24802;DHT22;12898;50.520;12.152;2023-04-25T02:40:00;6.70;99.90
24802;DHT22;12898;50.520;12.152;2023-04-25T02:42:27;6.70;99.90
24802;DHT22;12898;50.520;12.152;2023-04-25T02:44:53;6.70;99.90
24802;DHT22;12898;50.520;12.152;2023-04-25T02:47:18;6.70;99.90
24802;DHT22;12898;50.520;12.152;2023-04-25T02:49:44;6.70;99.90
24802;DHT22;12898;50.520;12.152;2023-04-25T02:52:10;6.70;99.90
24802;DHT22;12898;50.520;12.152;2023-04-25T02:54:37;6.70;99.90
24802;DHT22;12898;50.520;12.152;2023-04-25T02:57:05;6.70;99.90
24802;DHT22;12898;50.520;12.152;2023-04-25T02:59:32;6.70;99.90
24802;DHT22;12898;50.520;12.152;2023-04-25T03:01:58;6.70;99.90
24802;DHT22;12898;50.520;12.152;2023-04-25T03:04:23;6.80;99.90
24802;DHT22;12898;50.520;12.152;2023-04-25T03:06:50;6.80;99.90
24802;DHT22;12898;50.520;12.152;2023-04-25T03:09:16;6.80;99.90
24802;DHT22;12898;50.520;12.152;2023-04-25T03:11:42;6.80;99.90
24802;DHT22;12898;50.520;12.152;2023-04-25T03:14:09;6.80;99.90
24802;DHT22;12898;50.520;12.152;2023-04-25T03:16:35;6.80;99.90
24802;DHT22;12898;50.520;12.152;2023-04-25T03:19:01;6.80;99.90
24802;DHT22;12898;50.520;12.152;2023-04-25T03:21:27;6.80;99.90
24802;DHT22;12898;50.520;12.152;2023-04-25T03:23:53;6.80;99.90
24802;DHT22;12898;50.520;12.152;2023-04-25T03:26:19;6.80;99.90
24802;DHT22;12898;50.520;12.152;2023-04-25T03:28:44;6.80;99.90
24802;DHT22;12898;50.520;12.152;2023-04-25T03:31:10;6.90;99.90
24802;DHT22;12898;50.520;12.152;2023-04-25T03:33:36;6.90;99.90
24802;DHT22;12898;50.520;12.152;2023-04-25T03:36:02;6.90;99.90
24802;DHT22;12898;50.520;12.152;2023-04-25T03:38:27;6.90;99.90
24802;DHT22;12898;50.520;12.152;2023-04-25T03:40:54;6.90;99.90
24802;DHT22;12898;50.520;12.152;2023-04-25T03:43:21;6.90;99.90
24802;DHT22;12898;50.520;12.152;2023-04-25T03:45:47;6.90;99.90
24802;DHT22;12898;50.520;12.152;2023-04-25T03:48:12;6.90;99.90
24802;DHT22;12898;50.520;12.152;2023-04-25T03:50:38;6.80;99.90
24802;DHT22;12898;50.520;12.152;2023-04-25T03:53:04;6.80;99.90
24802;DHT22;12898;50.520;12.152;2023-04-25T03:55:29;6.80;99.90
24802;DHT22;12898;50.520;12.152;2023-04-25T03:57:57;6.70;99.90
24802;DHT22;12898;50.520;12.152;2023-04-25T04:00:24;6.70;99.90
24802;DHT22;12898;50.520;12.152;2023-04-25T04:02:49;6.70;99.90
24802;DHT22;12898;50.520;12.152;2023-04-25T04:05:15;6.70;99.90
24802;DHT22;12898;50.520;12.152;2023-04-25T04:07:41;6.70;99.90
24802;DHT22;12898;50.520;12.152;2023-04-25T04:10:11;6.80;99.90
24802;DHT22;12898;50.520;12.152;2023-04-25T04:12:37;6.80;99.90
24802;DHT22;12898;50.520;12.152;2023-04-25T04:15:06;6.80;99.90
24802;DHT22;12898;50.520;12.152;2023-04-25T04:17:33;6.80;99.90
24802;DHT22;12898;50.520;12.152;2023-04-25T04:19:59;6.80;99.90
24802;DHT22;12898;50.520;12.152;2023-04-25T04:22:25;6.80;99.90
24802;DHT22;12898;50.520;12.152;2023-04-25T04:24:51;6.90;99.90
24802;DHT22;12898;50.520;12.152;2023-04-25T04:27:21;6.90;99.90
24802;DHT22;12898;50.520;12.152;2023-04-25T04:29:47;6.80;99.90
24802;DHT22;12898;50.520;12.152;2023-04-25T04:32:13;6.90;99.90
24802;DHT22;12898;50.520;12.152;2023-04-25T04:34:39;6.90;99.90
24802;DHT22;12898;50.520;12.152;2023-04-25T04:37:06;6.90;99.90
24802;DHT22;12898;50.520;12.152;2023-04-25T04:39:36;6.90;99.90
24802;DHT22;12898;50.520;12.152;2023-04-25T04:42:02;6.90;99.90
24802;DHT22;12898;50.520;12.152;2023-04-25T04:44:29;6.90;99.90
24802;DHT22;12898;50.520;12.152;2023-04-25T04:46:58;6.90;99.90
24802;DHT22;12898;50.520;12.152;2023-04-25T04:49:24;6.80;99.90
24802;DHT22;12898;50.520;12.152;2023-04-25T04:51:50;6.70;99.90
24802;DHT22;12898;50.520;12.152;2023-04-25T04:54:16;6.60;99.90
24802;DHT22;12898;50.520;12.152;2023-04-25T04:56:41;6.60;99.90
24802;DHT22;12898;50.520;12.152;2023-04-25T04:59:07;6.60;99.90
24802;DHT22;12898;50.520;12.152;2023-04-25T05:01:33;6.60;99.90
24802;DHT22;12898;50.520;12.152;2023-04-25T05:04:01;6.60;99.90
24802;DHT22;12898;50.520;12.152;2023-04-25T05:06:28;6.60;99.90
24802;DHT22;12898;50.520;12.152;2023-04-25T05:08:57;6.60;99.90
24802;DHT22;12898;50.520;12.152;2023-04-25T05:11:24;6.50;99.90
24802;DHT22;12898;50.520;12.152;2023-04-25T05:13:51;6.40;99.90
24802;DHT22;12898;50.520;12.152;2023-04-25T05:16:17;6.40;99.90
24802;DHT22;12898;50.520;12.152;2023-04-25T05:18:43;6.30;99.90
24802;DHT22;12898;50.520;12.152;2023-04-25T05:21:08;6.20;99.90
24802;DHT22;12898;50.520;12.152;2023-04-25T05:23:34;6.20;99.90
24802;DHT22;12898;50.520;12.152;2023-04-25T05:26:00;6.20;99.90
24802;DHT22;12898;50.520;12.152;2023-04-25T05:28:25;6.20;99.90
24802;DHT22;12898;50.520;12.152;2023-04-25T05:30:51;6.10;99.90
24802;DHT22;12898;50.520;12.152;2023-04-25T05:33:17;6.10;99.90
24802;DHT22;12898;50.520;12.152;2023-04-25T05:35:43;6.00;99.90
24802;DHT22;12898;50.520;12.152;2023-04-25T05:38:09;6.00;99.90
24802;DHT22;12898;50.520;12.152;2023-04-25T05:40:35;6.00;99.90
24802;DHT22;12898;50.520;12.152;2023-04-25T05:43:01;6.00;99.90
24802;DHT22;12898;50.520;12.152;2023-04-25T05:45:26;5.90;99.90
24802;DHT22;12898;50.520;12.152;2023-04-25T05:47:52;5.90;99.90
24802;DHT22;12898;50.520;12.152;2023-04-25T05:50:18;5.90;99.90
24802;DHT22;12898;50.520;12.152;2023-04-25T05:52:43;5.90;99.90
24802;DHT22;12898;50.520;12.152;2023-04-25T05:55:09;5.80;99.90
24802;DHT22;12898;50.520;12.152;2023-04-25T05:57:35;5.80;99.90
24802;DHT22;12898;50.520;12.152;2023-04-25T06:00:00;5.70;99.90
24802;DHT22;12898;50.520;12.152;2023-04-25T06:02:26;5.60;99.90
24802;DHT22;12898;50.520;12.152;2023-04-25T06:04:52;5.70;99.90
24802;DHT22;12898;50.520;12.152;2023-04-25T06:07:19;5.70;99.90
24802;DHT22;12898;50.520;12.152;2023-04-25T06:09:45;5.70;99.90
24802;DHT22;12898;50.520;12.152;2023-04-25T06:12:11;5.80;99.90
24802;DHT22;12898;50.520;12.152;2023-04-25T06:14:37;5.90;99.90
24802;DHT22;12898;50.520;12.152;2023-04-25T06:17:03;6.10;99.90
24802;DHT22;12898;50.520;12.152;2023-04-25T06:19:33;6.10;99.90
24802;DHT22;12898;50.520;12.152;2023-04-25T06:22:00;6.20;99.90
24802;DHT22;12898;50.520;12.152;2023-04-25T06:24:25;6.40;99.90
24802;DHT22;12898;50.520;12.152;2023-04-25T06:26:51;6.50;99.90
24802;DHT22;12898;50.520;12.152;2023-04-25T06:29:18;6.60;99.90
24802;DHT22;12898;50.520;12.152;2023-04-25T06:31:43;6.80;99.90
24802;DHT22;12898;50.520;12.152;2023-04-25T06:34:09;6.90;99.90
24802;DHT22;12898;50.520;12.152;2023-04-25T06:36:34;7.00;99.90
24802;DHT22;12898;50.520;12.152;2023-04-25T06:39:00;7.10;99.90
24802;DHT22;12898;50.520;12.152;2023-04-25T06:41:26;7.20;99.90
24802;DHT22;12898;50.520;12.152;2023-04-25T06:43:51;7.30;99.90
24802;DHT22;12898;50.520;12.152;2023-04-25T06:46:17;7.50;99.90
24802;DHT22;12898;50.520;12.152;2023-04-25T06:48:43;7.60;99.90
24802;DHT22;12898;50.520;12.152;2023-04-25T06:51:09;7.70;99.90
24802;DHT22;12898;50.520;12.152;2023-04-25T06:53:34;7.70;99.90
24802;DHT22;12898;50.520;12.152;2023-04-25T06:56:00;7.70;99.90
24802;DHT22;12898;50.520;12.152;2023-04-25T06:58:26;7.70;99.90
24802;DHT22;12898;50.520;12.152;2023-04-25T07:00:52;7.60;99.90
24802;DHT22;12898;50.520;12.152;2023-04-25T07:03:17;7.70;99.90
24802;DHT22;12898;50.520;12.152;2023-04-25T07:05:43;7.70;99.90
24802;DHT22;12898;50.520;12.152;2023-04-25T07:08:11;7.70;99.90
24802;DHT22;12898;50.520;12.152;2023-04-25T07:10:36;7.70;99.90
24802;DHT22;12898;50.520;12.152;2023-04-25T07:13:02;7.80;99.90
24802;DHT22;12898;50.520;12.152;2023-04-25T07:15:28;7.80;99.90
24802;DHT22;12898;50.520;12.152;2023-04-25T07:17:54;7.80;99.90
24802;DHT22;12898;50.520;12.152;2023-04-25T07:20:19;7.80;99.90
24802;DHT22;12898;50.520;12.152;2023-04-25T07:22:45;7.70;99.90
24802;DHT22;12898;50.520;12.152;2023-04-25T07:25:11;7.60;99.90
24802;DHT22;12898;50.520;12.152;2023-04-25T07:27:36;7.60;99.90
24802;DHT22;12898;50.520;12.152;2023-04-25T07:30:03;7.70;99.90
24802;DHT22;12898;50.520;12.152;2023-04-25T07:32:29;7.80;99.90
24802;DHT22;12898;50.520;12.152;2023-04-25T07:34:55;7.90;99.90
24802;DHT22;12898;50.520;12.152;2023-04-25T07:37:21;7.90;99.90
24802;DHT22;12898;50.520;12.152;2023-04-25T07:39:47;7.90;99.90
24802;DHT22;12898;50.520;12.152;2023-04-25T07:42:13;7.80;99.90
24802;DHT22;12898;50.520;12.152;2023-04-25T07:44:39;7.90;99.90
24802;DHT22;12898;50.520;12.152;2023-04-25T07:47:09;7.90;99.90
24802;DHT22;12898;50.520;12.152;2023-04-25T07:49:38;7.90;99.90
24802;DHT22;12898;50.520;12.152;2023-04-25T07:52:05;8.00;99.90
24802;DHT22;12898;50.520;12.152;2023-04-25T07:54:34;8.10;99.90
24802;DHT22;12898;50.520;12.152;2023-04-25T07:57:00;8.30;99.90
24802;DHT22;12898;50.520;12.152;2023-04-25T07:59:25;8.60;99.90
24802;DHT22;12898;50.520;12.152;2023-04-25T08:01:51;9.00;99.90
24802;DHT22;12898;50.520;12.152;2023-04-25T08:04:17;9.50;99.90
24802;DHT22;12898;50.520;12.152;2023-04-25T08:06:43;10.00;99.90
24802;DHT22;12898;50.520;12.152;2023-04-25T08:09:09;10.10;99.90
24802;DHT22;12898;50.520;12.152;2023-04-25T08:11:35;10.10;99.90
24802;DHT22;12898;50.520;12.152;2023-04-25T08:14:01;9.80;99.90
24802;DHT22;12898;50.520;12.152;2023-04-25T08:16:27;9.30;99.90
24802;DHT22;12898;50.520;12.152;2023-04-25T08:18:53;9.10;99.90
24802;DHT22;12898;50.520;12.152;2023-04-25T08:21:20;9.30;99.90
24802;DHT22;12898;50.520;12.152;2023-04-25T08:23:45;9.50;99.90
24802;DHT22;12898;50.520;12.152;2023-04-25T08:26:11;9.70;99.90
24802;DHT22;12898;50.520;12.152;2023-04-25T08:28:37;10.10;99.90
24802;DHT22;12898;50.520;12.152;2023-04-25T08:31:03;10.10;99.90
24802;DHT22;12898;50.520;12.152;2023-04-25T08:33:29;10.00;99.90
24802;DHT22;12898;50.520;12.152;2023-04-25T08:35:55;9.80;99.90
24802;DHT22;12898;50.520;12.152;2023-04-25T08:38:21;9.50;99.90
24802;DHT22;12898;50.520;12.152;2023-04-25T08:40:49;9.40;99.90
24802;DHT22;12898;50.520;12.152;2023-04-25T08:43:18;9.30;99.90
24802;DHT22;12898;50.520;12.152;2023-04-25T08:45:45;9.30;99.90
24802;DHT22;12898;50.520;12.152;2023-04-25T08:48:13;9.40;99.90
24802;DHT22;12898;50.520;12.152;2023-04-25T08:50:43;9.40;99.90
24802;DHT22;12898;50.520;12.152;2023-04-25T08:53:12;9.50;99.90
24802;DHT22;12898;50.520;12.152;2023-04-25T08:55:45;9.60;99.90
24802;DHT22;12898;50.520;12.152;2023-04-25T08:58:12;9.50;99.90
24802;DHT22;12898;50.520;12.152;2023-04-25T09:00:38;9.40;99.90
24802;DHT22;12898;50.520;12.152;2023-04-25T09:03:04;9.30;99.90
24802;DHT22;12898;50.520;12.152;2023-04-25T09:05:34;9.20;99.90
24802;DHT22;12898;50.520;12.152;2023-04-25T09:08:01;9.20;99.90
24802;DHT22;12898;50.520;12.152;2023-04-25T09:10:27;9.20;99.90
24802;DHT22;12898;50.520;12.152;2023-04-25T09:13:13;9.10;99.90
24802;DHT22;12898;50.520;12.152;2023-04-25T09:15:56;9.20;99.90
24802;DHT22;12898;50.520;12.152;2023-04-25T09:18:30;9.30;99.90
24802;DHT22;12898;50.520;12.152;2023-04-25T09:21:09;9.40;99.90
24802;DHT22;12898;50.520;12.152;2023-04-25T09:23:45;9.40;99.90
24802;DHT22;12898;50.520;12.152;2023-04-25T09:26:19;9.40;99.90
24802;DHT22;12898;50.520;12.152;2023-04-25T09:28:46;9.40;99.90
24802;DHT22;12898;50.520;12.152;2023-04-25T09:31:22;9.30;99.90
24802;DHT22;12898;50.520;12.152;2023-04-25T09:33:49;9.30;99.90
24802;DHT22;12898;50.520;12.152;2023-04-25T09:36:15;9.20;99.90
24802;DHT22;12898;50.520;12.152;2023-04-25T09:38:44;9.00;99.90
24802;DHT22;12898;50.520;12.152;2023-04-25T09:41:11;8.90;99.90
24802;DHT22;12898;50.520;12.152;2023-04-25T09:43:38;8.90;99.90
24802;DHT22;12898;50.520;12.152;2023-04-25T09:46:13;8.90;99.90
24802;DHT22;12898;50.520;12.152;2023-04-25T09:48:39;8.80;99.90
24802;DHT22;12898;50.520;12.152;2023-04-25T09:51:12;8.90;99.90
24802;DHT22;12898;50.520;12.152;2023-04-25T09:53:44;8.90;99.90
24802;DHT22;12898;50.520;12.152;2023-04-25T09:56:20;8.80;99.90
24802;DHT22;12898;50.520;12.152;2023-04-25T09:58:47;8.70;99.90
24802;DHT22;12898;50.520;12.152;2023-04-25T10:01:16;8.50;99.90
24802;DHT22;12898;50.520;12.152;2023-04-25T10:03:43;8.40;99.90
24802;DHT22;12898;50.520;12.152;2023-04-25T10:06:18;8.30;99.90
24802;DHT22;12898;50.520;12.152;2023-04-25T10:08:49;8.20;99.90
24802;DHT22;12898;50.520;12.152;2023-04-25T10:11:17;8.30;99.90
24802;DHT22;12898;50.520;12.152;2023-04-25T10:13:43;8.30;99.90
24802;DHT22;12898;50.520;12.152;2023-04-25T10:16:09;8.40;99.90
24802;DHT22;12898;50.520;12.152;2023-04-25T10:18:35;8.60;99.90
24802;DHT22;12898;50.520;12.152;2023-04-25T10:21:04;8.80;99.90
24802;DHT22;12898;50.520;12.152;2023-04-25T10:23:31;8.90;99.90
24802;DHT22;12898;50.520;12.152;2023-04-25T10:25:59;9.00;99.90
24802;DHT22;12898;50.520;12.152;2023-04-25T10:28:26;9.20;99.90
24802;DHT22;12898;50.520;12.152;2023-04-25T10:31:06;9.40;99.90
24802;DHT22;12898;50.520;12.152;2023-04-25T10:36:14;9.40;99.90
24802;DHT22;12898;50.520;12.152;2023-04-25T10:38:43;9.40;99.90
24802;DHT22;12898;50.520;12.152;2023-04-25T10:41:11;9.50;99.90
24802;DHT22;12898;50.520;12.152;2023-04-25T10:43:39;9.80;99.90
24802;DHT22;12898;50.520;12.152;2023-04-25T10:46:24;10.20;99.90
24802;DHT22;12898;50.520;12.152;2023-04-25T10:48:53;10.50;99.90
24802;DHT22;12898;50.520;12.152;2023-04-25T10:51:32;10.70;99.90
24802;DHT22;12898;50.520;12.152;2023-04-25T10:54:06;10.80;99.90
24802;DHT22;12898;50.520;12.152;2023-04-25T10:56:41;10.80;99.90
24802;DHT22;12898;50.520;12.152;2023-04-25T10:59:15;10.50;99.90
24802;DHT22;12898;50.520;12.152;2023-04-25T11:01:43;10.20;99.90
24802;DHT22;12898;50.520;12.152;2023-04-25T11:04:40;10.00;99.90
24802;DHT22;12898;50.520;12.152;2023-04-25T11:07:37;9.70;99.90
24802;DHT22;12898;50.520;12.152;2023-04-25T11:10:05;9.50;99.90
24802;DHT22;12898;50.520;12.152;2023-04-25T11:12:31;9.30;99.90
24802;DHT22;12898;50.520;12.152;2023-04-25T11:15:02;9.30;99.90
24802;DHT22;12898;50.520;12.152;2023-04-25T11:17:31;9.40;99.90
24802;DHT22;12898;50.520;12.152;2023-04-25T11:19:58;9.30;99.90
24802;DHT22;12898;50.520;12.152;2023-04-25T11:22:24;9.20;99.90
24802;DHT22;12898;50.520;12.152;2023-04-25T11:24:52;9.20;99.90
24802;DHT22;12898;50.520;12.152;2023-04-25T11:27:17;9.20;99.90
24802;DHT22;12898;50.520;12.152;2023-04-25T11:29:43;9.20;99.90
24802;DHT22;12898;50.520;12.152;2023-04-25T11:32:09;9.40;99.90
24802;DHT22;12898;50.520;12.152;2023-04-25T11:34:35;9.50;99.90
24802;DHT22;12898;50.520;12.152;2023-04-25T11:37:01;9.70;99.90
24802;DHT22;12898;50.520;12.152;2023-04-25T11:39:28;9.80;99.90
24802;DHT22;12898;50.520;12.152;2023-04-25T11:41:54;9.70;99.90
24802;DHT22;12898;50.520;12.152;2023-04-25T11:44:21;9.60;99.90
24802;DHT22;12898;50.520;12.152;2023-04-25T11:46:48;9.50;99.90
24802;DHT22;12898;50.520;12.152;2023-04-25T11:49:14;9.30;99.90
24802;DHT22;12898;50.520;12.152;2023-04-25T11:51:41;9.20;99.90
24802;DHT22;12898;50.520;12.152;2023-04-25T11:54:08;9.20;99.90
24802;DHT22;12898;50.520;12.152;2023-04-25T11:56:34;9.10;99.90
24802;DHT22;12898;50.520;12.152;2023-04-25T11:59:05;9.10;99.90
24802;DHT22;12898;50.520;12.152;2023-04-25T12:01:31;9.20;99.90
24802;DHT22;12898;50.520;12.152;2023-04-25T12:03:58;9.60;99.90
24802;DHT22;12898;50.520;12.152;2023-04-25T12:06:38;10.70;99.90
24802;DHT22;12898;50.520;12.152;2023-04-25T12:09:08;11.80;99.90
24802;DHT22;12898;50.520;12.152;2023-04-25T12:11:46;12.00;99.90
24802;DHT22;12898;50.520;12.152;2023-04-25T12:14:25;11.90;99.90
24802;DHT22;12898;50.520;12.152;2023-04-25T12:16:54;11.80;99.90
24802;DHT22;12898;50.520;12.152;2023-04-25T12:19:21;11.60;99.90
24802;DHT22;12898;50.520;12.152;2023-04-25T12:21:47;11.30;99.90
24802;DHT22;12898;50.520;12.152;2023-04-25T12:24:16;11.00;99.90
24802;DHT22;12898;50.520;12.152;2023-04-25T12:29:26;9.90;99.90
24802;DHT22;12898;50.520;12.152;2023-04-25T12:31:54;9.20;99.90
24802;DHT22;12898;50.520;12.152;2023-04-25T12:34:23;8.90;99.90
24802;DHT22;12898;50.520;12.152;2023-04-25T12:36:50;8.60;99.90
24802;DHT22;12898;50.520;12.152;2023-04-25T12:39:17;8.50;99.90
24802;DHT22;12898;50.520;12.152;2023-04-25T12:41:53;8.40;99.90
24802;DHT22;12898;50.520;12.152;2023-04-25T12:44:21;8.50;99.90
24802;DHT22;12898;50.520;12.152;2023-04-25T12:46:48;8.60;99.90
24802;DHT22;12898;50.520;12.152;2023-04-25T12:49:14;8.90;99.90
24802;DHT22;12898;50.520;12.152;2023-04-25T12:51:40;9.70;99.90
24802;DHT22;12898;50.520;12.152;2023-04-25T12:54:06;10.20;99.90
24802;DHT22;12898;50.520;12.152;2023-04-25T12:56:33;10.70;99.90
24802;DHT22;12898;50.520;12.152;2023-04-25T12:58:59;11.00;99.90
24802;DHT22;12898;50.520;12.152;2023-04-25T13:01:25;11.30;99.90
24802;DHT22;12898;50.520;12.152;2023-04-25T13:03:52;11.60;99.90
24802;DHT22;12898;50.520;12.152;2023-04-25T13:06:19;12.00;99.90
24802;DHT22;12898;50.520;12.152;2023-04-25T13:08:45;12.40;99.90
24802;DHT22;12898;50.520;12.152;2023-04-25T13:11:10;12.40;99.90
24802;DHT22;12898;50.520;12.152;2023-04-25T13:13:37;12.40;99.90
24802;DHT22;12898;50.520;12.152;2023-04-25T13:16:04;12.30;99.90
24802;DHT22;12898;50.520;12.152;2023-04-25T13:18:30;12.00;99.90
24802;DHT22;12898;50.520;12.152;2023-04-25T13:20:57;11.50;99.90
24802;DHT22;12898;50.520;12.152;2023-04-25T13:23:25;11.00;99.90
24802;DHT22;12898;50.520;12.152;2023-04-25T13:25:53;10.50;99.90
24802;DHT22;12898;50.520;12.152;2023-04-25T13:28:19;10.20;99.90
24802;DHT22;12898;50.520;12.152;2023-04-25T13:30:45;10.10;99.90
24802;DHT22;12898;50.520;12.152;2023-04-25T13:33:11;10.00;99.90
24802;DHT22;12898;50.520;12.152;2023-04-25T13:35:38;10.20;99.90
24802;DHT22;12898;50.520;12.152;2023-04-25T13:38:04;10.50;99.90
24802;DHT22;12898;50.520;12.152;2023-04-25T13:40:30;10.60;99.90
24802;DHT22;12898;50.520;12.152;2023-04-25T13:42:57;10.60;99.90
24802;DHT22;12898;50.520;12.152;2023-04-25T13:45:23;10.60;99.90
24802;DHT22;12898;50.520;12.152;2023-04-25T13:47:49;10.80;99.90
24802;DHT22;12898;50.520;12.152;2023-04-25T13:50:15;11.00;99.90
24802;DHT22;12898;50.520;12.152;2023-04-25T13:52:41;11.10;99.90
24802;DHT22;12898;50.520;12.152;2023-04-25T13:55:08;11.20;99.90
24802;DHT22;12898;50.520;12.152;2023-04-25T13:57:34;11.30;99.90
24802;DHT22;12898;50.520;12.152;2023-04-25T14:00:01;11.40;99.90
24802;DHT22;12898;50.520;12.152;2023-04-25T14:02:37;11.60;96.20
24802;DHT22;12898;50.520;12.152;2023-04-25T14:05:04;11.40;97.30
24802;DHT22;12898;50.520;12.152;2023-04-25T14:07:30;11.30;97.00
24802;DHT22;12898;50.520;12.152;2023-04-25T14:09:57;11.20;98.60
24802;DHT22;12898;50.520;12.152;2023-04-25T14:12:23;11.30;94.40
24802;DHT22;12898;50.520;12.152;2023-04-25T14:14:49;11.10;92.30
24802;DHT22;12898;50.520;12.152;2023-04-25T14:17:14;11.10;91.10
24802;DHT22;12898;50.520;12.152;2023-04-25T14:19:40;11.10;93.10
24802;DHT22;12898;50.520;12.152;2023-04-25T14:22:10;11.40;91.10
24802;DHT22;12898;50.520;12.152;2023-04-25T14:24:36;11.70;94.30
24802;DHT22;12898;50.520;12.152;2023-04-25T14:27:03;12.00;92.10
24802;DHT22;12898;50.520;12.152;2023-04-25T14:29:29;11.80;83.60
24802;DHT22;12898;50.520;12.152;2023-04-25T14:32:04;11.70;86.80
24802;DHT22;12898;50.520;12.152;2023-04-25T14:34:30;11.50;83.10
24802;DHT22;12898;50.520;12.152;2023-04-25T14:36:56;11.40;87.20
24802;DHT22;12898;50.520;12.152;2023-04-25T14:39:22;11.30;91.50
24802;DHT22;12898;50.520;12.152;2023-04-25T14:41:47;11.30;90.30
24802;DHT22;12898;50.520;12.152;2023-04-25T14:44:13;11.10;90.50
24802;DHT22;12898;50.520;12.152;2023-04-25T14:46:39;11.00;90.90
24802;DHT22;12898;50.520;12.152;2023-04-25T14:49:04;10.80;90.30
24802;DHT22;12898;50.520;12.152;2023-04-25T14:51:30;10.60;91.30
24802;DHT22;12898;50.520;12.152;2023-04-25T14:53:56;10.40;90.20
24802;DHT22;12898;50.520;12.152;2023-04-25T14:56:22;10.20;90.10
24802;DHT22;12898;50.520;12.152;2023-04-25T14:58:48;10.00;91.30
24802;DHT22;12898;50.520;12.152;2023-04-25T15:01:14;9.90;91.20
24802;DHT22;12898;50.520;12.152;2023-04-25T15:03:40;9.70;91.80
24802;DHT22;12898;50.520;12.152;2023-04-25T15:06:06;9.80;93.80
24802;DHT22;12898;50.520;12.152;2023-04-25T15:08:32;9.80;94.00
24802;DHT22;12898;50.520;12.152;2023-04-25T15:10:58;10.10;93.50
24802;DHT22;12898;50.520;12.152;2023-04-25T15:13:24;10.30;92.80
24802;DHT22;12898;50.520;12.152;2023-04-25T15:15:50;10.30;92.90
24802;DHT22;12898;50.520;12.152;2023-04-25T15:18:21;10.20;86.40
24802;DHT22;12898;50.520;12.152;2023-04-25T15:20:51;10.00;91.20
24802;DHT22;12898;50.520;12.152;2023-04-25T15:23:18;9.80;88.90
24802;DHT22;12898;50.520;12.152;2023-04-25T15:25:44;9.70;91.00
24802;DHT22;12898;50.520;12.152;2023-04-25T15:28:10;9.60;89.60
24802;DHT22;12898;50.520;12.152;2023-04-25T15:30:35;9.40;89.00
24802;DHT22;12898;50.520;12.152;2023-04-25T15:33:01;9.20;87.10